createdAt,value
2018-07-22T00:01:31.596Z,4.90
2018-07-22T00:04:27.670Z,5.20
2018-07-22T00:07:23.738Z,4.63
2018-07-22T00:10:26.130Z,5.57
2018-07-22T00:13:22.271Z,6.00
2018-07-22T00:16:18.822Z,5.47
2018-07-22T00:19:14.885Z,4.60
2018-07-22T00:22:10.950Z,5.07
2018-07-22T00:25:07.385Z,5.30
2018-07-22T00:28:03.478Z,5.13
2018-07-22T00:30:59.561Z,5.33
2018-07-22T00:33:55.668Z,5.93
2018-07-22T00:36:51.757Z,5.37
2018-07-22T00:39:47.833Z,5.20
2018-07-22T00:42:43.938Z,5.00
2018-07-22T00:45:39.982Z,5.20
2018-07-22T00:48:36.058Z,5.30
2018-07-22T00:51:32.144Z,4.60
2018-07-22T00:54:28.554Z,5.33
2018-07-22T00:57:24.634Z,5.33
2018-07-22T01:00:21.121Z,4.60
2018-07-22T01:03:17.073Z,5.70
2018-07-22T01:06:13.079Z,4.73
2018-07-22T01:09:10.395Z,4.93
2018-07-22T01:12:12.958Z,5.13
2018-07-22T01:15:09.377Z,5.43
2018-07-22T01:18:05.530Z,4.90
2018-07-22T01:21:01.609Z,4.80
2018-07-22T01:23:58.023Z,5.00
2018-07-22T01:26:54.118Z,4.90
2018-07-22T01:29:50.238Z,6.07
2018-07-22T01:32:46.307Z,5.87
2018-07-22T01:35:42.363Z,5.23
2018-07-22T01:38:38.481Z,6.10
2018-07-22T01:41:34.547Z,4.70
2018-07-22T01:44:30.621Z,4.97
2018-07-22T01:47:26.694Z,4.57
2018-07-22T01:50:22.760Z,5.57
2018-07-22T01:53:18.848Z,4.83
2018-07-22T01:56:14.934Z,4.60
2018-07-22T01:59:11.094Z,4.57
2018-07-22T02:02:07.583Z,4.33
2018-07-22T02:05:04.399Z,4.63
2018-07-22T02:08:00.489Z,4.93
2018-07-22T02:10:56.554Z,5.47
2018-07-22T02:13:52.606Z,4.63
2018-07-22T02:16:48.660Z,5.03
2018-07-22T02:19:44.743Z,4.67
2018-07-22T02:22:40.833Z,5.23
2018-07-22T02:25:36.879Z,5.10
2018-07-22T02:28:32.946Z,4.77
2018-07-22T02:31:29.381Z,5.23
2018-07-22T02:34:25.483Z,4.00
2018-07-22T02:37:21.563Z,4.60
2018-07-22T02:40:17.667Z,4.60
2018-07-22T02:43:13.764Z,4.87
2018-07-22T02:46:09.869Z,4.87
2018-07-22T02:49:06.183Z,5.00
2018-07-22T02:52:02.230Z,5.63
2018-07-22T02:54:58.312Z,4.50
2018-07-22T02:57:54.427Z,4.60
2018-07-22T03:00:50.492Z,4.90
2018-07-22T03:03:46.602Z,4.87
2018-07-22T03:06:43.027Z,5.30
2018-07-22T03:09:39.116Z,5.20
2018-07-22T03:12:35.519Z,5.47
2018-07-22T03:15:31.592Z,5.80
2018-07-22T03:18:27.665Z,4.60
2018-07-22T03:21:23.738Z,4.33
2018-07-22T03:24:19.822Z,5.33
2018-07-22T03:27:15.903Z,5.03
2018-07-22T03:30:12.002Z,4.80
2018-07-22T03:33:08.063Z,4.50
2018-07-22T03:36:04.174Z,4.80
2018-07-22T03:39:00.306Z,5.63
2018-07-22T03:41:56.359Z,5.60
2018-07-22T03:44:52.428Z,4.87
2018-07-22T03:47:48.474Z,4.37
2018-07-22T03:50:44.659Z,4.67
2018-07-22T03:53:40.741Z,4.60
2018-07-22T03:56:36.813Z,6.20
2018-07-22T03:59:32.907Z,7.07
2018-07-22T04:02:29.027Z,4.80
2018-07-22T04:05:25.124Z,4.90
2018-07-22T04:08:21.162Z,4.80
2018-07-22T04:11:17.326Z,5.37
2018-07-22T04:14:13.385Z,4.93
2018-07-22T04:17:09.718Z,4.30
2018-07-22T04:20:06.566Z,6.00
2018-07-22T04:23:02.686Z,5.53
2018-07-22T04:25:58.762Z,5.40
2018-07-22T04:28:54.862Z,5.37
2018-07-22T04:31:51.262Z,5.13
2018-07-22T04:34:47.339Z,5.10
2018-07-22T04:37:43.414Z,4.90
2018-07-22T04:40:39.497Z,5.83
2018-07-22T04:43:35.527Z,5.87
2018-07-22T04:46:34.044Z,5.40
2018-07-22T04:49:30.137Z,5.20
2018-07-22T04:52:26.207Z,6.30
2018-07-22T04:55:22.306Z,4.70
2018-07-22T04:58:18.461Z,5.20
2018-07-22T05:01:14.547Z,5.07
2018-07-22T05:04:10.615Z,4.83
2018-07-22T05:07:07.021Z,5.50
2018-07-22T05:10:03.148Z,5.70
2018-07-22T05:12:59.214Z,5.50
2018-07-22T05:15:55.287Z,6.00
2018-07-22T05:18:51.336Z,5.17
2018-07-22T05:21:47.423Z,6.00
2018-07-22T05:24:43.467Z,5.23
2018-07-22T05:27:39.539Z,7.10
2018-07-22T05:30:35.623Z,8.53
2018-07-22T05:33:31.757Z,6.90
2018-07-22T05:36:27.832Z,6.57
2018-07-22T05:39:23.877Z,7.23
2018-07-22T05:42:20.591Z,6.87
2018-07-22T05:45:16.647Z,7.37
2018-07-22T05:48:12.723Z,6.07
2018-07-22T05:51:08.821Z,7.10
2018-07-22T05:54:04.978Z,6.93
2018-07-22T05:57:01.206Z,6.47
2018-07-22T05:59:57.291Z,7.13
2018-07-22T06:02:53.362Z,7.37
2018-07-22T06:05:49.477Z,7.40
2018-07-22T06:08:45.544Z,8.77
2018-07-22T06:11:41.685Z,7.83
2018-07-22T06:14:37.910Z,7.57
2018-07-22T06:17:34.333Z,6.37
2018-07-22T06:20:30.426Z,6.93
2018-07-22T06:23:26.530Z,7.30
2018-07-22T06:26:23.198Z,7.93
2018-07-22T06:29:19.261Z,7.10
2018-07-22T06:32:15.346Z,8.00
2018-07-22T06:35:11.422Z,6.13
2018-07-22T06:38:08.047Z,6.67
2018-07-22T06:41:04.220Z,6.40
2018-07-22T06:44:00.370Z,5.63
2018-07-22T06:46:56.455Z,6.17
2018-07-22T06:49:52.527Z,6.20
2018-07-22T06:52:48.646Z,6.53
2018-07-22T06:55:44.787Z,7.20
2018-07-22T06:58:40.853Z,7.07
2018-07-22T07:01:36.963Z,7.83
2018-07-22T07:04:33.042Z,6.70
2018-07-22T07:07:29.109Z,6.67
2018-07-22T07:10:25.534Z,7.83
2018-07-22T07:13:21.639Z,6.83
2018-07-22T07:16:17.759Z,7.50
2018-07-22T07:19:13.824Z,6.53
2018-07-22T07:22:10.245Z,6.80
2018-07-22T07:25:07.393Z,8.03
2018-07-22T07:28:03.830Z,6.30
2018-07-22T07:30:59.672Z,6.47
2018-07-22T07:33:55.742Z,6.53
2018-07-22T07:36:51.824Z,7.60
2018-07-22T07:39:47.901Z,7.40
2018-07-22T07:42:44.053Z,7.33
2018-07-22T07:45:40.158Z,6.60
2018-07-22T07:48:36.270Z,6.80
2018-07-22T07:51:32.389Z,6.67
2018-07-22T07:54:28.466Z,6.03
2018-07-22T07:57:24.563Z,6.97
2018-07-22T08:00:20.616Z,5.83
2018-07-22T08:03:16.718Z,5.90
2018-07-22T08:06:12.783Z,6.60
2018-07-22T08:09:09.830Z,5.90
2018-07-22T08:12:05.930Z,5.83
2018-07-22T08:15:02.426Z,6.50
2018-07-22T08:17:58.502Z,5.80
2018-07-22T08:20:54.783Z,5.37
2018-07-22T08:23:50.938Z,6.53
2018-07-22T08:26:47.145Z,5.70
2018-07-22T08:29:43.245Z,7.33
2018-07-22T08:32:39.358Z,6.13
2018-07-22T08:35:35.435Z,6.83
2018-07-22T08:38:31.566Z,6.37
2018-07-22T08:41:27.717Z,6.40
2018-07-22T08:44:24.022Z,6.00
2018-07-22T08:47:20.093Z,6.23
2018-07-22T08:50:16.196Z,5.67
2018-07-22T08:53:12.315Z,5.70
2018-07-22T08:56:08.598Z,5.37
2018-07-22T08:59:05.011Z,5.60
2018-07-22T09:02:00.986Z,6.10
2018-07-22T09:04:57.034Z,6.07
2018-07-22T09:07:53.153Z,6.37
2018-07-22T09:10:49.241Z,6.27
2018-07-22T09:13:45.511Z,6.17
2018-07-22T09:16:41.930Z,5.67
2018-07-22T09:19:38.011Z,6.67
2018-07-22T09:22:34.106Z,6.07
2018-07-22T09:25:30.507Z,5.87
2018-07-22T09:28:26.609Z,5.50
2018-07-22T09:31:22.693Z,6.30
2018-07-22T09:34:18.797Z,5.33
2018-07-22T09:37:14.850Z,6.03
2018-07-22T09:40:11.165Z,5.90
2018-07-22T09:43:07.434Z,5.93
2018-07-22T09:46:03.536Z,5.60
2018-07-22T09:48:59.635Z,5.93
2018-07-22T09:51:55.701Z,5.80
2018-07-22T09:54:51.789Z,5.30
2018-07-22T09:57:47.954Z,5.00
2018-07-22T10:00:49.277Z,5.03
2018-07-22T10:03:45.396Z,5.87
2018-07-22T10:06:41.469Z,5.30
2018-07-22T10:09:37.610Z,5.37
2018-07-22T10:12:33.718Z,4.87
2018-07-22T10:15:29.798Z,4.77
2018-07-22T10:18:25.887Z,5.07
2018-07-22T10:21:22.023Z,4.83
2018-07-22T10:24:18.125Z,5.50
2018-07-22T10:27:14.217Z,5.47
2018-07-22T10:30:10.582Z,5.13
2018-07-22T10:33:07.018Z,4.80
2018-07-22T10:36:05.594Z,4.83
2018-07-22T10:39:03.758Z,5.33
2018-07-22T10:41:59.871Z,5.07
2018-07-22T10:44:56.024Z,4.97
2018-07-22T10:47:52.255Z,5.27
2018-07-22T10:50:48.507Z,5.23
2018-07-22T10:53:44.784Z,5.37
2018-07-22T10:56:40.849Z,6.00
2018-07-22T10:59:37.411Z,5.57
2018-07-22T11:02:33.515Z,5.00
2018-07-22T11:05:29.643Z,4.67
2018-07-22T11:08:25.746Z,4.97
2018-07-22T11:11:22.183Z,4.90
2018-07-22T11:14:18.328Z,4.60
2018-07-22T11:17:14.634Z,4.67
2018-07-22T11:20:10.742Z,4.20
2018-07-22T11:23:07.149Z,4.23
2018-07-22T11:26:03.259Z,3.90
2018-07-22T11:28:59.473Z,3.97
2018-07-22T11:31:55.725Z,3.83
2018-07-22T11:34:51.841Z,4.30
2018-07-22T11:37:47.921Z,4.10
2018-07-22T11:40:44.092Z,3.60
2018-07-22T11:43:40.238Z,3.60
2018-07-22T11:46:37.656Z,4.10
2018-07-22T11:49:33.827Z,3.20
2018-07-22T11:52:29.880Z,3.57
2018-07-22T11:55:26.313Z,3.40
2018-07-22T11:58:22.377Z,3.93
2018-07-22T12:01:18.514Z,3.77
2018-07-22T12:04:14.636Z,3.50
2018-07-22T12:07:10.682Z,3.63
2018-07-22T12:10:07.161Z,3.40
2018-07-22T12:13:03.550Z,3.20
2018-07-22T12:15:59.636Z,2.97
2018-07-22T12:18:55.776Z,2.93
2018-07-22T12:21:51.866Z,2.60
2018-07-22T12:24:48.303Z,2.60
2018-07-22T12:27:44.361Z,2.70
2018-07-22T12:30:40.902Z,2.60
2018-07-22T12:33:36.963Z,2.50
2018-07-22T12:36:33.054Z,2.60
2018-07-22T12:39:30.239Z,2.70
2018-07-22T12:42:26.466Z,3.03
2018-07-22T12:45:22.546Z,2.73
2018-07-22T12:48:18.633Z,2.70
2018-07-22T12:51:14.834Z,2.50
2018-07-22T12:54:10.890Z,2.80
2018-07-22T12:57:07.027Z,2.93
2018-07-22T13:00:03.171Z,2.73
2018-07-22T13:02:59.218Z,3.00
2018-07-22T13:05:55.333Z,2.87
2018-07-22T13:08:51.518Z,3.10
2018-07-22T13:11:47.591Z,2.87
2018-07-22T13:14:45.615Z,3.10
2018-07-22T13:17:41.667Z,3.03
2018-07-22T13:20:38.303Z,2.77
2018-07-22T13:23:34.361Z,2.97
2018-07-22T13:26:33.498Z,2.70
2018-07-22T13:29:29.675Z,3.17
2018-07-22T13:32:25.983Z,2.57
2018-07-22T13:35:22.134Z,2.50
2018-07-22T13:38:18.238Z,2.73
2018-07-22T13:41:14.506Z,2.93
2018-07-22T13:44:10.563Z,2.33
2018-07-22T13:47:06.638Z,2.60
2018-07-22T13:50:02.859Z,2.80
2018-07-22T13:52:58.985Z,2.40
2018-07-22T13:55:55.427Z,2.73
2018-07-22T13:58:51.556Z,2.93
2018-07-22T14:01:47.622Z,2.23
2018-07-22T14:04:43.715Z,2.83
2018-07-22T14:07:39.814Z,2.53
2018-07-22T14:10:35.904Z,2.27
2018-07-22T14:13:31.966Z,2.40
2018-07-22T14:16:28.082Z,2.43
2018-07-22T14:19:24.205Z,2.53
2018-07-22T14:22:20.290Z,2.70
2018-07-22T14:25:16.386Z,2.40
2018-07-22T14:28:18.854Z,2.73
2018-07-22T14:31:14.982Z,2.53
2018-07-22T14:34:11.038Z,2.40
2018-07-22T14:37:06.868Z,2.20
2018-07-22T14:40:03.278Z,2.40
2018-07-22T14:42:59.355Z,2.40
2018-07-22T14:45:55.474Z,2.20
2018-07-22T14:48:51.538Z,2.53
2018-07-22T14:51:47.654Z,2.60
2018-07-22T14:54:43.700Z,2.40
2018-07-22T14:57:39.807Z,2.40
2018-07-22T15:00:35.935Z,2.70
2018-07-22T15:03:32.033Z,3.13
2018-07-22T15:06:28.234Z,2.60
2018-07-22T15:09:24.350Z,2.87
2018-07-22T15:12:20.791Z,2.63
2018-07-22T15:15:16.862Z,2.40
2018-07-22T15:18:12.640Z,2.57
2018-07-22T15:21:08.659Z,2.70
2018-07-22T15:24:04.711Z,2.37
2018-07-22T15:27:00.840Z,2.40
2018-07-22T15:29:56.938Z,2.20
2018-07-22T15:32:53.181Z,2.67
2018-07-22T15:35:49.903Z,2.20
2018-07-22T15:38:45.994Z,2.13
2018-07-22T15:41:42.182Z,1.90
2018-07-22T15:44:38.250Z,2.00
2018-07-22T15:47:34.589Z,2.27
2018-07-22T15:50:30.751Z,2.17
2018-07-22T15:53:26.884Z,2.33
2018-07-22T15:56:22.978Z,1.83
2018-07-22T15:59:18.820Z,1.97
2018-07-22T16:02:15.226Z,1.80
2018-07-22T16:05:11.313Z,2.00
2018-07-22T16:08:07.758Z,2.10
2018-07-22T16:11:03.925Z,1.80
2018-07-22T16:14:00.079Z,1.70
2018-07-22T16:16:56.208Z,2.07
2018-07-22T16:19:52.376Z,1.87
2018-07-22T16:22:48.461Z,2.00
2018-07-22T16:25:44.543Z,1.80
2018-07-22T16:28:41.038Z,2.10
2018-07-22T16:31:37.210Z,1.77
2018-07-22T16:34:33.298Z,1.70
2018-07-22T18:39:27.026Z,2.10
2018-07-22T18:42:23.760Z,1.70
2018-07-22T18:45:19.847Z,1.50
2018-07-22T18:48:15.983Z,2.05
2018-07-22T18:51:12.344Z,1.65
2018-07-22T18:54:08.436Z,1.80
2018-07-22T18:57:04.788Z,1.80
2018-07-22T19:00:01.739Z,1.82
2018-07-22T19:02:57.869Z,2.50
2018-07-22T19:05:54.282Z,2.25
2018-07-22T19:08:50.377Z,2.50
2018-07-22T19:11:46.756Z,2.60
2018-07-22T19:14:43.471Z,2.20
2018-07-22T19:17:39.617Z,1.90
2018-07-22T19:20:36.028Z,2.40
2018-07-22T19:23:32.650Z,2.10
2018-07-22T19:26:28.714Z,2.13
2018-07-22T19:29:25.147Z,2.27
2018-07-22T19:32:21.799Z,2.30
2018-07-22T19:35:18.559Z,2.40
2018-07-22T19:38:15.323Z,2.60
2018-07-22T19:41:12.328Z,2.70
2018-07-22T19:44:09.073Z,2.10
2018-07-22T19:47:05.657Z,2.07
2018-07-22T19:50:01.816Z,2.10
2018-07-22T19:52:58.136Z,2.30
2018-07-22T19:55:54.338Z,2.10
2018-07-22T19:58:50.690Z,1.67
2018-07-22T20:01:46.750Z,2.30
2018-07-22T20:04:42.812Z,2.10
2018-07-22T20:07:39.184Z,1.98
2018-07-22T20:10:35.964Z,1.90
2018-07-22T20:13:33.383Z,1.65
2018-07-22T20:16:29.421Z,2.03
2018-07-22T20:19:25.588Z,2.37
2018-07-22T20:22:21.628Z,2.30
2018-07-22T20:25:17.985Z,2.50
2018-07-22T20:28:14.709Z,2.05
2018-07-22T20:31:11.545Z,1.92
2018-07-22T20:34:08.204Z,1.72
2018-07-22T20:37:04.948Z,1.60
2018-07-22T20:40:01.186Z,1.70
2018-07-22T20:42:57.538Z,2.22
2018-07-22T20:45:54.018Z,1.90
2018-07-22T20:48:51.797Z,1.98
2018-07-22T20:51:48.437Z,2.15
2018-07-22T20:54:45.124Z,2.05
2018-07-22T20:57:41.855Z,1.90
2018-07-22T21:00:38.576Z,1.70
2018-07-22T21:03:34.979Z,2.10
2018-07-22T21:06:31.353Z,1.87
2018-07-22T21:09:28.004Z,2.00
2018-07-22T21:12:47.284Z,1.70
2018-07-22T21:15:43.379Z,1.75
2018-07-22T21:18:40.018Z,2.30
2018-07-22T21:21:36.392Z,2.10
2018-07-22T21:24:32.445Z,1.98
2018-07-22T21:27:28.961Z,1.77
2018-07-22T21:30:25.725Z,1.82
2018-07-22T21:33:21.888Z,1.90
2018-07-22T21:36:18.273Z,1.90
2018-07-22T21:39:14.363Z,2.30
2018-07-22T21:42:10.755Z,2.40
2018-07-22T21:45:07.687Z,2.90
2018-07-22T21:48:04.087Z,2.52
2018-07-22T21:51:00.772Z,2.40
2018-07-22T21:53:57.424Z,2.22
2018-07-22T21:56:54.145Z,2.40
2018-07-22T21:59:50.688Z,3.07
2018-07-22T22:02:47.659Z,2.00
2018-07-22T22:05:44.172Z,2.70
2018-07-22T22:08:40.336Z,2.15
2018-07-22T22:11:36.940Z,2.20
2018-07-22T22:14:33.002Z,2.40
2018-07-22T22:17:29.357Z,2.55
2018-07-22T22:20:25.846Z,2.70
2018-07-22T22:23:21.919Z,2.87
2018-07-22T22:26:18.398Z,2.40
2018-07-22T22:29:15.138Z,2.35
2018-07-22T22:32:11.782Z,3.40
2018-07-22T22:35:08.524Z,2.37
2018-07-22T22:38:04.598Z,2.37
2018-07-22T22:41:01.035Z,3.22
2018-07-22T22:43:57.035Z,2.70
2018-07-22T22:46:53.395Z,2.20
2018-07-22T22:49:49.586Z,3.05
2018-07-22T22:52:45.941Z,2.98
2018-07-22T22:55:42.354Z,4.10
2018-07-22T22:58:50.316Z,3.42
2018-07-22T23:01:46.732Z,3.00
2018-07-22T23:04:42.555Z,3.33
2018-07-22T23:07:39.257Z,3.30
2018-07-22T23:10:35.915Z,4.00
2018-07-22T23:13:32.249Z,3.80
2018-07-22T23:16:28.290Z,4.57
2018-07-22T23:19:24.698Z,3.98
2018-07-22T23:22:21.095Z,3.77
2018-07-22T23:25:17.763Z,3.35
2018-07-22T23:28:13.816Z,3.60
2018-07-22T23:31:10.266Z,3.67
2018-07-22T23:34:06.806Z,4.97
2018-07-22T23:37:03.146Z,3.77
2018-07-22T23:39:59.460Z,4.97
2018-07-22T23:42:55.763Z,4.10
2018-07-22T23:45:52.181Z,5.73
2018-07-22T23:48:48.267Z,4.70
2018-07-22T23:51:44.330Z,4.70
2018-07-22T23:54:40.659Z,3.85
2018-07-22T23:57:37.300Z,3.60
